sensor_id;sensor_type;location;lat;lon;timestamp;temperature;humidity
983;DHT22;480;48.124;11.578;2023-04-24T00:00:23;12.00;99.90
983;DHT22;480;48.124;11.578;2023-04-24T00:02:50;12.00;99.90
983;DHT22;480;48.124;11.578;2023-04-24T00:05:17;11.90;99.90
983;DHT22;480;48.124;11.578;2023-04-24T00:07:45;11.70;99.90
983;DHT22;480;48.124;11.578;2023-04-24T00:10:12;11.80;99.90
983;DHT22;480;48.124;11.578;2023-04-24T00:12:39;11.80;99.90
983;DHT22;480;48.124;11.578;2023-04-24T00:15:09;11.90;99.90
983;DHT22;480;48.124;11.578;2023-04-24T00:17:36;11.80;99.90
983;DHT22;480;48.124;11.578;2023-04-24T00:20:04;11.80;99.90
983;DHT22;480;48.124;11.578;2023-04-24T00:22:33;11.70;99.90
983;DHT22;480;48.124;11.578;2023-04-24T00:25:00;11.70;99.90
983;DHT22;480;48.124;11.578;2023-04-24T00:27:27;11.60;99.90
983;DHT22;480;48.124;11.578;2023-04-24T00:29:54;11.60;99.90
983;DHT22;480;48.124;11.578;2023-04-24T00:32:22;11.60;99.90
983;DHT22;480;48.124;11.578;2023-04-24T00:34:49;11.60;99.90
983;DHT22;480;48.124;11.578;2023-04-24T00:37:16;11.60;99.90
983;DHT22;480;48.124;11.578;2023-04-24T00:39:43;11.50;99.90
983;DHT22;480;48.124;11.578;2023-04-24T00:42:10;11.50;99.90
983;DHT22;480;48.124;11.578;2023-04-24T00:44:38;11.50;99.90
983;DHT22;480;48.124;11.578;2023-04-24T00:47:05;11.50;99.90
983;DHT22;480;48.124;11.578;2023-04-24T00:49:35;11.40;99.90
983;DHT22;480;48.124;11.578;2023-04-24T00:52:02;11.50;99.90
983;DHT22;480;48.124;11.578;2023-04-24T00:54:33;11.50;99.90
983;DHT22;480;48.124;11.578;2023-04-24T00:57:00;11.50;99.90
983;DHT22;480;48.124;11.578;2023-04-24T00:59:27;11.50;99.90
983;DHT22;480;48.124;11.578;2023-04-24T01:01:55;11.40;99.90
983;DHT22;480;48.124;11.578;2023-04-24T01:04:22;11.20;99.90
983;DHT22;480;48.124;11.578;2023-04-24T01:06:51;11.10;99.90
983;DHT22;480;48.124;11.578;2023-04-24T01:09:19;11.20;99.90
983;DHT22;480;48.124;11.578;2023-04-24T01:11:48;11.20;99.90
983;DHT22;480;48.124;11.578;2023-04-24T01:14:16;11.10;99.90
983;DHT22;480;48.124;11.578;2023-04-24T01:16:43;11.20;99.90
983;DHT22;480;48.124;11.578;2023-04-24T01:19:10;11.10;99.90
983;DHT22;480;48.124;11.578;2023-04-24T01:21:38;11.10;99.90
983;DHT22;480;48.124;11.578;2023-04-24T01:24:07;11.10;99.90
983;DHT22;480;48.124;11.578;2023-04-24T01:26:34;11.10;99.90
983;DHT22;480;48.124;11.578;2023-04-24T01:29:01;11.20;99.90
983;DHT22;480;48.124;11.578;2023-04-24T01:31:29;11.20;99.90
983;DHT22;480;48.124;11.578;2023-04-24T01:33:56;11.10;99.90
983;DHT22;480;48.124;11.578;2023-04-24T01:36:24;11.10;99.90
983;DHT22;480;48.124;11.578;2023-04-24T01:38:52;11.00;99.90
983;DHT22;480;48.124;11.578;2023-04-24T01:41:21;10.90;99.90
983;DHT22;480;48.124;11.578;2023-04-24T01:43:49;10.90;99.90
983;DHT22;480;48.124;11.578;2023-04-24T01:46:16;11.00;99.90
983;DHT22;480;48.124;11.578;2023-04-24T01:48:45;11.00;99.90
983;DHT22;480;48.124;11.578;2023-04-24T01:51:12;10.80;99.90
983;DHT22;480;48.124;11.578;2023-04-24T01:53:39;10.90;99.90
983;DHT22;480;48.124;11.578;2023-04-24T01:56:06;10.90;99.90
983;DHT22;480;48.124;11.578;2023-04-24T01:58:36;11.00;99.90
983;DHT22;480;48.124;11.578;2023-04-24T02:01:03;11.00;99.90
983;DHT22;480;48.124;11.578;2023-04-24T02:03:30;11.00;99.90
983;DHT22;480;48.124;11.578;2023-04-24T02:05:57;10.80;99.90
983;DHT22;480;48.124;11.578;2023-04-24T02:08:24;10.90;99.90
983;DHT22;480;48.124;11.578;2023-04-24T02:10:51;11.00;99.90
983;DHT22;480;48.124;11.578;2023-04-24T02:13:19;11.00;99.90
983;DHT22;480;48.124;11.578;2023-04-24T02:15:47;10.90;99.90
983;DHT22;480;48.124;11.578;2023-04-24T02:18:14;10.90;99.90
983;DHT22;480;48.124;11.578;2023-04-24T02:20:42;10.90;99.90
983;DHT22;480;48.124;11.578;2023-04-24T02:23:09;10.90;99.90
983;DHT22;480;48.124;11.578;2023-04-24T02:25:36;10.90;99.90
983;DHT22;480;48.124;11.578;2023-04-24T02:28:03;10.90;99.90
983;DHT22;480;48.124;11.578;2023-04-24T02:30:30;10.80;99.90
983;DHT22;480;48.124;11.578;2023-04-24T02:32:58;10.80;99.90
983;DHT22;480;48.124;11.578;2023-04-24T02:35:25;10.80;99.90
983;DHT22;480;48.124;11.578;2023-04-24T02:37:52;10.70;99.90
983;DHT22;480;48.124;11.578;2023-04-24T02:40:19;10.90;99.90
983;DHT22;480;48.124;11.578;2023-04-24T02:42:46;10.90;99.90
983;DHT22;480;48.124;11.578;2023-04-24T02:45:13;10.70;99.90
983;DHT22;480;48.124;11.578;2023-04-24T02:47:41;10.70;99.90
983;DHT22;480;48.124;11.578;2023-04-24T02:50:10;10.60;99.90
983;DHT22;480;48.124;11.578;2023-04-24T02:52:37;10.60;99.90
983;DHT22;480;48.124;11.578;2023-04-24T02:55:05;10.70;99.90
983;DHT22;480;48.124;11.578;2023-04-24T02:57:33;10.80;99.90
983;DHT22;480;48.124;11.578;2023-04-24T03:00:00;10.80;99.90
983;DHT22;480;48.124;11.578;2023-04-24T03:02:28;10.80;99.90
983;DHT22;480;48.124;11.578;2023-04-24T03:04:55;10.70;99.90
983;DHT22;480;48.124;11.578;2023-04-24T03:07:24;10.70;99.90
983;DHT22;480;48.124;11.578;2023-04-24T03:09:51;10.80;99.90
983;DHT22;480;48.124;11.578;2023-04-24T03:12:18;10.70;99.90
983;DHT22;480;48.124;11.578;2023-04-24T03:14:45;10.70;99.90
983;DHT22;480;48.124;11.578;2023-04-24T03:17:12;10.70;99.90
983;DHT22;480;48.124;11.578;2023-04-24T03:19:39;10.60;99.90
983;DHT22;480;48.124;11.578;2023-04-24T03:22:06;10.50;99.90
983;DHT22;480;48.124;11.578;2023-04-24T03:24:36;10.60;99.90
983;DHT22;480;48.124;11.578;2023-04-24T03:27:03;10.70;99.90
983;DHT22;480;48.124;11.578;2023-04-24T03:29:30;10.60;99.90
983;DHT22;480;48.124;11.578;2023-04-24T03:31:56;10.60;99.90
983;DHT22;480;48.124;11.578;2023-04-24T03:34:23;10.60;99.90
983;DHT22;480;48.124;11.578;2023-04-24T03:36:50;10.60;99.90
983;DHT22;480;48.124;11.578;2023-04-24T03:39:18;10.60;99.90
983;DHT22;480;48.124;11.578;2023-04-24T03:41:46;10.60;99.90
983;DHT22;480;48.124;11.578;2023-04-24T03:44:13;10.60;99.90
983;DHT22;480;48.124;11.578;2023-04-24T03:46:40;10.60;99.90
983;DHT22;480;48.124;11.578;2023-04-24T03:49:07;10.50;99.90
983;DHT22;480;48.124;11.578;2023-04-24T03:51:34;10.50;99.90
983;DHT22;480;48.124;11.578;2023-04-24T03:54:02;10.40;99.90
983;DHT22;480;48.124;11.578;2023-04-24T03:56:29;10.40;99.90
983;DHT22;480;48.124;11.578;2023-04-24T03:58:57;10.40;99.90
983;DHT22;480;48.124;11.578;2023-04-24T04:01:25;10.40;99.90
983;DHT22;480;48.124;11.578;2023-04-24T04:03:53;10.40;99.90
983;DHT22;480;48.124;11.578;2023-04-24T04:06:20;10.40;99.90
983;DHT22;480;48.124;11.578;2023-04-24T04:08:48;10.30;99.90
983;DHT22;480;48.124;11.578;2023-04-24T04:11:15;10.30;99.90
983;DHT22;480;48.124;11.578;2023-04-24T04:13:42;10.30;99.90
983;DHT22;480;48.124;11.578;2023-04-24T04:16:10;10.40;99.90
983;DHT22;480;48.124;11.578;2023-04-24T04:18:37;10.50;99.90
983;DHT22;480;48.124;11.578;2023-04-24T04:21:04;10.40;99.90
983;DHT22;480;48.124;11.578;2023-04-24T04:23:31;10.30;99.90
983;DHT22;480;48.124;11.578;2023-04-24T04:25:58;10.40;99.90
983;DHT22;480;48.124;11.578;2023-04-24T04:28:25;10.40;99.90
983;DHT22;480;48.124;11.578;2023-04-24T04:30:52;10.50;99.90
983;DHT22;480;48.124;11.578;2023-04-24T04:33:22;10.40;99.90
983;DHT22;480;48.124;11.578;2023-04-24T04:35:50;10.50;99.90
983;DHT22;480;48.124;11.578;2023-04-24T04:38:17;10.50;99.90
983;DHT22;480;48.124;11.578;2023-04-24T04:40:45;10.60;99.90
983;DHT22;480;48.124;11.578;2023-04-24T04:43:16;10.60;99.90
983;DHT22;480;48.124;11.578;2023-04-24T04:45:43;10.60;99.90
983;DHT22;480;48.124;11.578;2023-04-24T04:48:10;10.50;99.90
983;DHT22;480;48.124;11.578;2023-04-24T04:50:40;10.50;99.90
983;DHT22;480;48.124;11.578;2023-04-24T04:53:07;10.60;99.90
983;DHT22;480;48.124;11.578;2023-04-24T04:55:34;10.60;99.90
983;DHT22;480;48.124;11.578;2023-04-24T04:58:01;10.70;99.90
983;DHT22;480;48.124;11.578;2023-04-24T05:00:28;10.60;99.90
983;DHT22;480;48.124;11.578;2023-04-24T05:03:01;10.50;99.90
983;DHT22;480;48.124;11.578;2023-04-24T05:05:28;10.50;99.90
983;DHT22;480;48.124;11.578;2023-04-24T05:07:57;10.50;99.90
983;DHT22;480;48.124;11.578;2023-04-24T05:10:24;10.40;99.90
983;DHT22;480;48.124;11.578;2023-04-24T05:12:51;10.40;99.90
983;DHT22;480;48.124;11.578;2023-04-24T05:15:18;10.20;99.90
983;DHT22;480;48.124;11.578;2023-04-24T05:17:45;10.30;99.90
983;DHT22;480;48.124;11.578;2023-04-24T05:20:12;10.50;99.90
983;DHT22;480;48.124;11.578;2023-04-24T05:22:39;10.50;99.90
983;DHT22;480;48.124;11.578;2023-04-24T05:25:08;10.50;99.90
983;DHT22;480;48.124;11.578;2023-04-24T05:27:35;10.50;99.90
983;DHT22;480;48.124;11.578;2023-04-24T05:30:02;10.50;99.90
983;DHT22;480;48.124;11.578;2023-04-24T05:32:30;10.40;99.90
983;DHT22;480;48.124;11.578;2023-04-24T05:34:57;10.50;99.90
983;DHT22;480;48.124;11.578;2023-04-24T05:37:24;10.50;99.90
983;DHT22;480;48.124;11.578;2023-04-24T05:39:51;10.60;99.90
983;DHT22;480;48.124;11.578;2023-04-24T05:42:19;10.60;99.90
983;DHT22;480;48.124;11.578;2023-04-24T05:44:46;10.70;99.90
983;DHT22;480;48.124;11.578;2023-04-24T05:47:13;10.70;99.90
983;DHT22;480;48.124;11.578;2023-04-24T05:49:40;10.70;99.90
983;DHT22;480;48.124;11.578;2023-04-24T05:52:08;10.70;99.90
983;DHT22;480;48.124;11.578;2023-04-24T05:54:35;10.60;99.90
983;DHT22;480;48.124;11.578;2023-04-24T05:57:02;10.60;99.90
983;DHT22;480;48.124;11.578;2023-04-24T05:59:36;10.60;99.90
983;DHT22;480;48.124;11.578;2023-04-24T06:02:04;10.70;99.90
983;DHT22;480;48.124;11.578;2023-04-24T06:04:31;10.80;99.90
983;DHT22;480;48.124;11.578;2023-04-24T06:06:59;10.80;99.90
983;DHT22;480;48.124;11.578;2023-04-24T06:09:26;11.00;99.90
983;DHT22;480;48.124;11.578;2023-04-24T06:11:53;10.90;99.90
983;DHT22;480;48.124;11.578;2023-04-24T06:14:20;10.90;99.90
983;DHT22;480;48.124;11.578;2023-04-24T06:16:49;11.00;99.90
983;DHT22;480;48.124;11.578;2023-04-24T06:19:16;11.10;99.90
983;DHT22;480;48.124;11.578;2023-04-24T06:21:43;11.10;99.90
983;DHT22;480;48.124;11.578;2023-04-24T06:24:10;11.20;99.90
983;DHT22;480;48.124;11.578;2023-04-24T06:26:37;11.20;99.90
983;DHT22;480;48.124;11.578;2023-04-24T06:29:04;11.20;99.90
983;DHT22;480;48.124;11.578;2023-04-24T06:31:32;11.10;99.90
983;DHT22;480;48.124;11.578;2023-04-24T06:34:03;11.20;99.90
983;DHT22;480;48.124;11.578;2023-04-24T06:36:31;11.20;99.90
983;DHT22;480;48.124;11.578;2023-04-24T06:39:00;11.20;99.90
983;DHT22;480;48.124;11.578;2023-04-24T06:41:27;11.20;99.90
983;DHT22;480;48.124;11.578;2023-04-24T06:43:55;11.20;99.90
983;DHT22;480;48.124;11.578;2023-04-24T06:46:22;11.20;99.90
983;DHT22;480;48.124;11.578;2023-04-24T06:48:51;11.20;99.90
983;DHT22;480;48.124;11.578;2023-04-24T06:51:22;11.20;99.90
983;DHT22;480;48.124;11.578;2023-04-24T06:53:50;11.40;99.90
983;DHT22;480;48.124;11.578;2023-04-24T06:56:17;11.50;99.90
983;DHT22;480;48.124;11.578;2023-04-24T06:58:44;11.50;99.90
983;DHT22;480;48.124;11.578;2023-04-24T07:01:11;11.60;99.90
983;DHT22;480;48.124;11.578;2023-04-24T07:03:38;11.70;99.90
983;DHT22;480;48.124;11.578;2023-04-24T07:06:06;11.60;99.90
983;DHT22;480;48.124;11.578;2023-04-24T07:08:34;11.80;99.90
983;DHT22;480;48.124;11.578;2023-04-24T07:11:02;11.80;99.90
983;DHT22;480;48.124;11.578;2023-04-24T07:13:29;12.00;99.90
983;DHT22;480;48.124;11.578;2023-04-24T07:15:56;12.10;99.90
983;DHT22;480;48.124;11.578;2023-04-24T07:18:23;12.10;99.90
983;DHT22;480;48.124;11.578;2023-04-24T07:20:50;12.00;99.90
983;DHT22;480;48.124;11.578;2023-04-24T07:23:18;12.00;99.90
983;DHT22;480;48.124;11.578;2023-04-24T07:25:46;12.10;99.90
983;DHT22;480;48.124;11.578;2023-04-24T07:28:13;12.10;99.90
983;DHT22;480;48.124;11.578;2023-04-24T07:30:41;12.10;99.90
983;DHT22;480;48.124;11.578;2023-04-24T07:33:07;12.30;99.90
983;DHT22;480;48.124;11.578;2023-04-24T07:35:36;12.20;99.90
983;DHT22;480;48.124;11.578;2023-04-24T07:38:03;12.30;99.90
983;DHT22;480;48.124;11.578;2023-04-24T07:40:30;12.30;99.90
983;DHT22;480;48.124;11.578;2023-04-24T07:42:59;12.10;99.90
983;DHT22;480;48.124;11.578;2023-04-24T07:45:26;12.00;99.90
983;DHT22;480;48.124;11.578;2023-04-24T07:47:53;11.80;99.90
983;DHT22;480;48.124;11.578;2023-04-24T07:50:21;11.80;99.90
983;DHT22;480;48.124;11.578;2023-04-24T07:52:51;11.90;99.90
983;DHT22;480;48.124;11.578;2023-04-24T07:55:18;11.80;99.90
983;DHT22;480;48.124;11.578;2023-04-24T07:57:45;11.90;99.90
983;DHT22;480;48.124;11.578;2023-04-24T08:00:14;11.80;99.90
983;DHT22;480;48.124;11.578;2023-04-24T08:02:41;11.80;99.90
983;DHT22;480;48.124;11.578;2023-04-24T08:05:08;11.90;99.90
983;DHT22;480;48.124;11.578;2023-04-24T08:07:35;11.90;99.90
983;DHT22;480;48.124;11.578;2023-04-24T08:10:03;12.00;99.90
983;DHT22;480;48.124;11.578;2023-04-24T08:12:30;12.10;99.90
983;DHT22;480;48.124;11.578;2023-04-24T08:14:57;12.20;99.90
983;DHT22;480;48.124;11.578;2023-04-24T08:17:26;12.20;99.90
983;DHT22;480;48.124;11.578;2023-04-24T08:19:53;12.20;99.90
983;DHT22;480;48.124;11.578;2023-04-24T08:22:27;12.20;99.90
983;DHT22;480;48.124;11.578;2023-04-24T08:24:54;12.10;99.90
983;DHT22;480;48.124;11.578;2023-04-24T08:27:21;12.00;99.90
983;DHT22;480;48.124;11.578;2023-04-24T08:29:50;12.00;99.90
983;DHT22;480;48.124;11.578;2023-04-24T08:32:17;12.00;99.90
983;DHT22;480;48.124;11.578;2023-04-24T08:34:45;11.90;99.90
983;DHT22;480;48.124;11.578;2023-04-24T08:37:12;11.90;99.90
983;DHT22;480;48.124;11.578;2023-04-24T08:39:40;11.80;99.90
983;DHT22;480;48.124;11.578;2023-04-24T08:42:07;11.90;99.90
983;DHT22;480;48.124;11.578;2023-04-24T08:44:35;11.60;99.90
983;DHT22;480;48.124;11.578;2023-04-24T08:47:03;11.40;99.90
983;DHT22;480;48.124;11.578;2023-04-24T08:49:30;11.30;99.90
983;DHT22;480;48.124;11.578;2023-04-24T08:51:59;11.30;99.90
983;DHT22;480;48.124;11.578;2023-04-24T08:54:26;11.30;99.90
983;DHT22;480;48.124;11.578;2023-04-24T08:56:55;11.40;99.90
983;DHT22;480;48.124;11.578;2023-04-24T08:59:24;11.20;99.90
983;DHT22;480;48.124;11.578;2023-04-24T09:01:52;11.20;99.90
983;DHT22;480;48.124;11.578;2023-04-24T09:04:20;11.10;99.90
983;DHT22;480;48.124;11.578;2023-04-24T09:06:50;10.90;99.90
983;DHT22;480;48.124;11.578;2023-04-24T09:09:18;10.80;99.90
983;DHT22;480;48.124;11.578;2023-04-24T09:11:46;10.80;99.90
983;DHT22;480;48.124;11.578;2023-04-24T09:14:13;10.90;99.90
983;DHT22;480;48.124;11.578;2023-04-24T09:16:41;10.90;99.90
983;DHT22;480;48.124;11.578;2023-04-24T09:19:08;11.00;99.90
983;DHT22;480;48.124;11.578;2023-04-24T09:21:35;11.10;99.90
983;DHT22;480;48.124;11.578;2023-04-24T09:24:05;11.10;99.90
983;DHT22;480;48.124;11.578;2023-04-24T09:26:35;11.20;99.90
983;DHT22;480;48.124;11.578;2023-04-24T09:29:03;11.20;99.90
983;DHT22;480;48.124;11.578;2023-04-24T09:31:31;11.40;99.90
983;DHT22;480;48.124;11.578;2023-04-24T09:34:00;11.60;99.90
983;DHT22;480;48.124;11.578;2023-04-24T09:36:30;11.70;99.90
983;DHT22;480;48.124;11.578;2023-04-24T09:38:59;11.60;99.90
983;DHT22;480;48.124;11.578;2023-04-24T09:41:26;11.70;99.90
983;DHT22;480;48.124;11.578;2023-04-24T09:43:56;11.80;99.90
983;DHT22;480;48.124;11.578;2023-04-24T09:46:29;11.80;99.90
983;DHT22;480;48.124;11.578;2023-04-24T09:48:57;11.90;99.90
983;DHT22;480;48.124;11.578;2023-04-24T09:51:34;12.00;99.90
983;DHT22;480;48.124;11.578;2023-04-24T09:54:03;12.00;99.90
983;DHT22;480;48.124;11.578;2023-04-24T09:56:33;12.20;99.90
983;DHT22;480;48.124;11.578;2023-04-24T09:59:07;12.10;99.90
983;DHT22;480;48.124;11.578;2023-04-24T10:01:34;12.30;99.90
983;DHT22;480;48.124;11.578;2023-04-24T10:04:03;12.50;99.90
983;DHT22;480;48.124;11.578;2023-04-24T10:06:33;12.70;99.90
983;DHT22;480;48.124;11.578;2023-04-24T10:09:01;12.90;99.90
983;DHT22;480;48.124;11.578;2023-04-24T10:11:30;13.00;99.90
983;DHT22;480;48.124;11.578;2023-04-24T10:13:57;13.20;99.90
983;DHT22;480;48.124;11.578;2023-04-24T10:16:27;13.30;99.90
983;DHT22;480;48.124;11.578;2023-04-24T10:18:54;13.50;99.90
983;DHT22;480;48.124;11.578;2023-04-24T10:21:23;13.60;99.90
983;DHT22;480;48.124;11.578;2023-04-24T10:23:50;13.50;99.90
983;DHT22;480;48.124;11.578;2023-04-24T10:26:18;13.60;99.90
983;DHT22;480;48.124;11.578;2023-04-24T10:28:46;13.50;99.90
983;DHT22;480;48.124;11.578;2023-04-24T10:31:14;13.50;99.90
983;DHT22;480;48.124;11.578;2023-04-24T10:33:44;13.50;99.90
983;DHT22;480;48.124;11.578;2023-04-24T10:36:14;13.60;99.90
983;DHT22;480;48.124;11.578;2023-04-24T10:38:43;13.50;99.90
983;DHT22;480;48.124;11.578;2023-04-24T10:41:13;13.60;99.90
983;DHT22;480;48.124;11.578;2023-04-24T10:43:42;13.50;99.90
983;DHT22;480;48.124;11.578;2023-04-24T10:46:09;13.50;99.90
983;DHT22;480;48.124;11.578;2023-04-24T10:48:43;13.30;99.90
983;DHT22;480;48.124;11.578;2023-04-24T10:51:21;13.20;99.90
983;DHT22;480;48.124;11.578;2023-04-24T10:53:50;13.10;99.90
983;DHT22;480;48.124;11.578;2023-04-24T10:56:17;12.90;99.90
983;DHT22;480;48.124;11.578;2023-04-24T10:58:45;12.20;99.90
983;DHT22;480;48.124;11.578;2023-04-24T11:01:24;11.60;99.90
983;DHT22;480;48.124;11.578;2023-04-24T11:03:56;11.30;99.90
983;DHT22;480;48.124;11.578;2023-04-24T11:06:29;11.00;99.90
983;DHT22;480;48.124;11.578;2023-04-24T11:09:02;10.90;99.90
983;DHT22;480;48.124;11.578;2023-04-24T11:11:30;11.00;99.90
983;DHT22;480;48.124;11.578;2023-04-24T11:14:07;11.10;99.90
983;DHT22;480;48.124;11.578;2023-04-24T11:16:38;11.30;99.90
983;DHT22;480;48.124;11.578;2023-04-24T11:19:08;11.50;99.90
983;DHT22;480;48.124;11.578;2023-04-24T11:21:43;11.90;99.90
983;DHT22;480;48.124;11.578;2023-04-24T11:24:38;12.20;99.90
983;DHT22;480;48.124;11.578;2023-04-24T11:27:09;12.50;99.90
983;DHT22;480;48.124;11.578;2023-04-24T11:29:44;12.90;99.90
983;DHT22;480;48.124;11.578;2023-04-24T11:32:30;13.20;99.90
983;DHT22;480;48.124;11.578;2023-04-24T11:35:00;13.30;99.90
983;DHT22;480;48.124;11.578;2023-04-24T11:37:28;13.40;99.90
983;DHT22;480;48.124;11.578;2023-04-24T11:39:57;13.70;99.90
983;DHT22;480;48.124;11.578;2023-04-24T11:42:25;13.90;99.90
983;DHT22;480;48.124;11.578;2023-04-24T11:44:53;14.10;99.90
983;DHT22;480;48.124;11.578;2023-04-24T11:47:28;14.30;99.90
983;DHT22;480;48.124;11.578;2023-04-24T11:49:55;14.10;99.90
983;DHT22;480;48.124;11.578;2023-04-24T11:52:24;13.90;99.90
983;DHT22;480;48.124;11.578;2023-04-24T11:54:51;13.70;99.90
983;DHT22;480;48.124;11.578;2023-04-24T11:57:19;13.50;99.90
983;DHT22;480;48.124;11.578;2023-04-24T11:59:47;13.40;99.90
983;DHT22;480;48.124;11.578;2023-04-24T12:02:21;13.40;99.90
983;DHT22;480;48.124;11.578;2023-04-24T12:04:48;13.20;99.90
983;DHT22;480;48.124;11.578;2023-04-24T12:07:15;13.10;99.90
983;DHT22;480;48.124;11.578;2023-04-24T12:09:45;13.20;99.90
983;DHT22;480;48.124;11.578;2023-04-24T12:12:12;13.30;99.90
983;DHT22;480;48.124;11.578;2023-04-24T12:14:44;13.30;99.90
983;DHT22;480;48.124;11.578;2023-04-24T12:17:11;13.40;99.90
983;DHT22;480;48.124;11.578;2023-04-24T12:19:45;13.50;99.90
983;DHT22;480;48.124;11.578;2023-04-24T12:22:12;13.50;99.90
983;DHT22;480;48.124;11.578;2023-04-24T12:24:59;13.50;99.90
983;DHT22;480;48.124;11.578;2023-04-24T12:27:29;13.50;99.90
983;DHT22;480;48.124;11.578;2023-04-24T12:29:59;13.40;99.90
983;DHT22;480;48.124;11.578;2023-04-24T12:32:26;13.40;99.90
983;DHT22;480;48.124;11.578;2023-04-24T12:34:53;13.40;99.90
983;DHT22;480;48.124;11.578;2023-04-24T12:37:21;13.60;99.90
983;DHT22;480;48.124;11.578;2023-04-24T12:40:04;13.80;99.90
983;DHT22;480;48.124;11.578;2023-04-24T12:42:33;13.80;99.90
983;DHT22;480;48.124;11.578;2023-04-24T12:45:03;13.90;99.90
983;DHT22;480;48.124;11.578;2023-04-24T12:47:31;14.00;99.90
983;DHT22;480;48.124;11.578;2023-04-24T12:49:58;14.00;99.90
983;DHT22;480;48.124;11.578;2023-04-24T12:52:26;14.10;99.90
983;DHT22;480;48.124;11.578;2023-04-24T12:54:55;14.00;99.90
983;DHT22;480;48.124;11.578;2023-04-24T12:57:24;14.00;99.90
983;DHT22;480;48.124;11.578;2023-04-24T12:59:53;14.20;99.90
983;DHT22;480;48.124;11.578;2023-04-24T13:02:20;14.50;99.90
983;DHT22;480;48.124;11.578;2023-04-24T13:04:48;14.40;99.90
983;DHT22;480;48.124;11.578;2023-04-24T13:07:15;14.30;99.90
983;DHT22;480;48.124;11.578;2023-04-24T13:09:43;14.40;99.90
983;DHT22;480;48.124;11.578;2023-04-24T13:12:11;14.40;99.90
983;DHT22;480;48.124;11.578;2023-04-24T13:14:39;14.40;99.90
983;DHT22;480;48.124;11.578;2023-04-24T13:17:06;14.50;99.90
983;DHT22;480;48.124;11.578;2023-04-24T13:19:36;14.40;99.90
983;DHT22;480;48.124;11.578;2023-04-24T13:22:03;14.00;99.90
983;DHT22;480;48.124;11.578;2023-04-24T13:24:31;13.80;99.90
983;DHT22;480;48.124;11.578;2023-04-24T13:26:58;13.60;99.90
983;DHT22;480;48.124;11.578;2023-04-24T13:29:25;13.60;99.90
983;DHT22;480;48.124;11.578;2023-04-24T13:31:54;13.50;99.90
983;DHT22;480;48.124;11.578;2023-04-24T13:34:22;13.50;99.90
983;DHT22;480;48.124;11.578;2023-04-24T13:36:49;13.60;99.90
983;DHT22;480;48.124;11.578;2023-04-24T13:39:16;14.10;99.90
983;DHT22;480;48.124;11.578;2023-04-24T13:41:43;14.60;99.90
983;DHT22;480;48.124;11.578;2023-04-24T13:44:10;14.70;99.90
983;DHT22;480;48.124;11.578;2023-04-24T13:46:37;14.60;99.90
983;DHT22;480;48.124;11.578;2023-04-24T13:49:07;14.40;99.90
983;DHT22;480;48.124;11.578;2023-04-24T13:51:34;14.30;99.90
983;DHT22;480;48.124;11.578;2023-04-24T13:54:01;14.20;99.90
983;DHT22;480;48.124;11.578;2023-04-24T13:56:28;14.20;99.90
983;DHT22;480;48.124;11.578;2023-04-24T13:58:56;14.10;99.90
983;DHT22;480;48.124;11.578;2023-04-24T14:01:23;13.80;99.90
983;DHT22;480;48.124;11.578;2023-04-24T14:03:50;13.80;99.90
983;DHT22;480;48.124;11.578;2023-04-24T14:06:19;13.70;99.90
983;DHT22;480;48.124;11.578;2023-04-24T14:08:46;13.70;99.90
983;DHT22;480;48.124;11.578;2023-04-24T14:11:13;13.80;99.90
983;DHT22;480;48.124;11.578;2023-04-24T14:13:41;14.00;99.90
983;DHT22;480;48.124;11.578;2023-04-24T14:16:08;14.30;99.90
983;DHT22;480;48.124;11.578;2023-04-24T14:18:35;14.40;99.90
983;DHT22;480;48.124;11.578;2023-04-24T14:21:02;14.30;99.90
983;DHT22;480;48.124;11.578;2023-04-24T14:23:31;14.40;99.90
983;DHT22;480;48.124;11.578;2023-04-24T14:25:58;14.30;99.90
983;DHT22;480;48.124;11.578;2023-04-24T14:28:26;14.30;99.90
983;DHT22;480;48.124;11.578;2023-04-24T14:30:53;14.60;99.90
983;DHT22;480;48.124;11.578;2023-04-24T14:33:20;14.90;99.90
983;DHT22;480;48.124;11.578;2023-04-24T14:35:47;15.30;99.90
983;DHT22;480;48.124;11.578;2023-04-24T14:38:14;15.30;99.90
983;DHT22;480;48.124;11.578;2023-04-24T14:40:42;15.10;99.90
983;DHT22;480;48.124;11.578;2023-04-24T14:43:09;14.70;99.90
983;DHT22;480;48.124;11.578;2023-04-24T14:45:36;14.50;99.90
983;DHT22;480;48.124;11.578;2023-04-24T14:48:04;14.70;99.90
983;DHT22;480;48.124;11.578;2023-04-24T14:50:31;14.60;99.90
983;DHT22;480;48.124;11.578;2023-04-24T14:52:58;14.60;99.90
983;DHT22;480;48.124;11.578;2023-04-24T14:55:25;14.80;99.90
983;DHT22;480;48.124;11.578;2023-04-24T14:57:53;14.80;99.90
983;DHT22;480;48.124;11.578;2023-04-24T15:00:21;14.60;99.90
983;DHT22;480;48.124;11.578;2023-04-24T15:02:49;14.50;99.90
983;DHT22;480;48.124;11.578;2023-04-24T15:05:16;14.50;99.90
983;DHT22;480;48.124;11.578;2023-04-24T15:07:42;14.50;99.90
983;DHT22;480;48.124;11.578;2023-04-24T15:10:11;14.60;99.90
983;DHT22;480;48.124;11.578;2023-04-24T15:12:38;14.70;99.90
983;DHT22;480;48.124;11.578;2023-04-24T15:15:08;14.70;99.90
983;DHT22;480;48.124;11.578;2023-04-24T15:17:35;14.50;99.90
983;DHT22;480;48.124;11.578;2023-04-24T15:20:03;14.40;99.90
983;DHT22;480;48.124;11.578;2023-04-24T15:22:32;14.20;99.90
983;DHT22;480;48.124;11.578;2023-04-24T15:24:59;14.10;99.90
983;DHT22;480;48.124;11.578;2023-04-24T15:27:26;14.00;99.90
983;DHT22;480;48.124;11.578;2023-04-24T15:29:53;14.00;99.90
983;DHT22;480;48.124;11.578;2023-04-24T15:32:22;14.10;99.90
983;DHT22;480;48.124;11.578;2023-04-24T15:34:49;14.00;99.90
983;DHT22;480;48.124;11.578;2023-04-24T15:37:18;14.00;99.90
983;DHT22;480;48.124;11.578;2023-04-24T15:39:50;14.10;99.90
983;DHT22;480;48.124;11.578;2023-04-24T15:42:25;14.20;99.90
983;DHT22;480;48.124;11.578;2023-04-24T15:44:52;14.50;99.90
983;DHT22;480;48.124;11.578;2023-04-24T15:47:25;14.30;99.90
983;DHT22;480;48.124;11.578;2023-04-24T15:49:52;14.00;99.90
983;DHT22;480;48.124;11.578;2023-04-24T15:52:21;13.90;99.90
983;DHT22;480;48.124;11.578;2023-04-24T15:54:48;13.80;99.90
983;DHT22;480;48.124;11.578;2023-04-24T15:57:15;13.90;99.90
983;DHT22;480;48.124;11.578;2023-04-24T15:59:43;14.00;99.90
983;DHT22;480;48.124;11.578;2023-04-24T16:02:12;13.90;99.90
983;DHT22;480;48.124;11.578;2023-04-24T16:04:44;13.90;99.90
983;DHT22;480;48.124;11.578;2023-04-24T16:07:12;13.80;99.90
983;DHT22;480;48.124;11.578;2023-04-24T16:09:39;13.70;99.90
983;DHT22;480;48.124;11.578;2023-04-24T16:12:06;13.70;99.90
983;DHT22;480;48.124;11.578;2023-04-24T16:14:34;13.70;99.90
983;DHT22;480;48.124;11.578;2023-04-24T16:17:01;13.70;99.90
983;DHT22;480;48.124;11.578;2023-04-24T16:19:28;13.60;99.90
983;DHT22;480;48.124;11.578;2023-04-24T16:21:58;13.60;99.90